Time;durP1;ratioP1;P1;durP2;ratioP2;P2;SDS_P1;SDS_P2;PMS_P1;PMS_P2;Temp;Humidity;BMP_temperature;BMP_pressure;BME280_temperature;BME280_humidity;BME280_pressure;Samples;Min_cycle;Max_cycle;Signal;HPM_P1;HPM_P2
2023/10/23 00:01:43;;;;;;;3.97;2.90;;;13.30;99.90;;;;;;4995769;28;20200;-81
2023/10/23 00:04:12;;;;;;;3.38;2.92;;;13.20;99.90;;;;;;4989221;28;20216;-82
2023/10/23 00:06:40;;;;;;;4.05;2.60;;;13.20;99.90;;;;;;4971736;28;20297;-81
2023/10/23 00:09:07;;;;;;;4.32;2.95;;;13.10;99.90;;;;;;4985464;28;20213;-81
2023/10/23 00:11:35;;;;;;;5.32;2.50;;;13.10;99.90;;;;;;4984596;28;20204;-81
2023/10/23 00:14:02;;;;;;;4.97;2.80;;;13.10;99.90;;;;;;4976813;28;20205;-81
2023/10/23 00:16:31;;;;;;;4.65;2.60;;;13.00;99.90;;;;;;4966700;28;20205;-81
2023/10/23 00:18:58;;;;;;;3.63;2.78;;;13.00;99.90;;;;;;4991841;28;20559;-81
2023/10/23 00:21:27;;;;;;;4.75;2.92;;;13.00;99.90;;;;;;4968060;28;20215;-81
2023/10/23 00:23:55;;;;;;;3.47;3.10;;;13.00;99.90;;;;;;4970886;28;20216;-81
2023/10/23 00:26:22;;;;;;;4.85;2.80;;;13.00;99.90;;;;;;4973826;28;20216;-81
2023/10/23 00:28:54;;;;;;;4.70;2.47;;;12.90;99.90;;;;;;4974241;28;20200;-81
2023/10/23 00:31:21;;;;;;;3.17;2.70;;;12.90;99.90;;;;;;4976701;28;20208;-81
2023/10/23 00:33:49;;;;;;;3.17;2.35;;;13.00;99.90;;;;;;4976239;28;20600;-81
2023/10/23 00:36:16;;;;;;;2.88;2.50;;;12.90;99.90;;;;;;4971453;28;20201;-81
2023/10/23 00:38:45;;;;;;;4.43;2.75;;;13.00;99.90;;;;;;4966650;28;20709;-81
2023/10/23 00:41:12;;;;;;;4.53;3.15;;;13.00;99.90;;;;;;4975224;28;20582;-82
2023/10/23 00:43:40;;;;;;;4.43;3.58;;;13.00;99.90;;;;;;4972209;28;20197;-81
2023/10/23 00:46:13;;;;;;;5.57;2.90;;;12.90;99.90;;;;;;4989117;28;20224;-81
2023/10/23 00:48:41;;;;;;;4.03;2.42;;;13.00;99.90;;;;;;4980706;28;20232;-81
2023/10/23 00:51:11;;;;;;;4.53;3.20;;;12.90;99.90;;;;;;4970487;28;20207;-81
2023/10/23 00:53:41;;;;;;;3.70;3.17;;;12.90;99.90;;;;;;4986086;28;20201;-81
2023/10/23 00:56:11;;;;;;;5.25;2.78;;;12.90;99.90;;;;;;4985644;28;20202;-81
2023/10/23 00:58:40;;;;;;;11.00;3.05;;;12.90;99.90;;;;;;4966899;28;20227;-82
2023/10/23 01:01:11;;;;;;;6.05;3.60;;;12.90;99.90;;;;;;4989534;28;20227;-81
2023/10/23 01:03:39;;;;;;;10.07;3.33;;;12.90;99.90;;;;;;4969893;28;20204;-81
2023/10/23 01:06:07;;;;;;;5.45;3.03;;;12.90;99.90;;;;;;4973820;28;20219;-81
2023/10/23 01:08:35;;;;;;;3.90;3.10;;;13.00;99.90;;;;;;4982377;28;20229;-81
2023/10/23 01:11:03;;;;;;;5.13;3.00;;;12.90;99.90;;;;;;4988584;28;20196;-82
2023/10/23 01:13:32;;;;;;;4.50;3.22;;;12.90;99.90;;;;;;4974677;28;20201;-81
2023/10/23 01:15:59;;;;;;;4.25;3.22;;;12.90;99.90;;;;;;4975539;28;20205;-81
2023/10/23 01:18:26;;;;;;;5.03;3.75;;;12.90;99.90;;;;;;4976373;28;20682;-82
2023/10/23 01:20:54;;;;;;;4.30;3.15;;;12.90;99.90;;;;;;4989572;28;20205;-81
2023/10/23 01:23:25;;;;;;;7.88;3.30;;;12.90;99.90;;;;;;4974646;28;20211;-81
2023/10/23 01:25:54;;;;;;;5.05;3.45;;;12.90;99.90;;;;;;4992833;28;20224;-82
2023/10/23 01:28:22;;;;;;;4.03;3.35;;;12.80;99.90;;;;;;4983663;28;20232;-81
2023/10/23 01:30:50;;;;;;;4.47;2.88;;;12.80;99.90;;;;;;4974399;28;20215;-81
2023/10/23 01:33:18;;;;;;;3.80;3.22;;;12.80;99.90;;;;;;4974249;28;20208;-81
2023/10/23 01:35:45;;;;;;;4.30;3.28;;;12.90;99.90;;;;;;4973441;28;20208;-81
2023/10/23 01:38:14;;;;;;;5.00;3.45;;;12.90;99.90;;;;;;4978818;28;20224;-81
2023/10/23 01:40:41;;;;;;;6.30;3.15;;;12.90;99.90;;;;;;4981606;28;20200;-81
2023/10/23 01:43:10;;;;;;;4.43;2.97;;;12.90;99.90;;;;;;4980335;28;20211;-82
2023/10/23 01:45:38;;;;;;;4.53;3.03;;;12.70;99.90;;;;;;4983141;28;20216;-81
2023/10/23 01:48:06;;;;;;;4.13;2.58;;;12.60;99.90;;;;;;4972168;28;20618;-81
2023/10/23 01:50:34;;;;;;;3.30;2.47;;;12.60;99.90;;;;;;4964369;28;20208;-81
2023/10/23 01:53:02;;;;;;;3.80;2.70;;;12.70;99.90;;;;;;4986062;28;20207;-82
2023/10/23 01:55:29;;;;;;;5.13;2.80;;;12.80;99.90;;;;;;4972839;28;20650;-81
2023/10/23 01:57:57;;;;;;;4.10;2.85;;;12.80;99.90;;;;;;4971962;28;20255;-81
2023/10/23 02:00:26;;;;;;;5.32;2.33;;;12.70;99.90;;;;;;4975780;28;20205;-81
2023/10/23 02:02:55;;;;;;;4.63;2.42;;;12.70;99.90;;;;;;4976145;28;20211;-81
2023/10/23 02:05:23;;;;;;;7.13;3.58;;;12.50;99.90;;;;;;4984243;28;20227;-80
2023/10/23 02:07:50;;;;;;;6.75;2.70;;;12.50;99.90;;;;;;4973447;28;20225;-81
2023/10/23 02:10:18;;;;;;;4.80;2.58;;;12.40;99.90;;;;;;4982454;28;20204;-83
2023/10/23 02:12:45;;;;;;;6.78;3.00;;;12.40;99.90;;;;;;4984860;28;20211;-81
2023/10/23 02:15:13;;;;;;;4.07;2.80;;;12.50;99.90;;;;;;4995327;28;20204;-81
2023/10/23 02:17:42;;;;;;;5.20;2.85;;;12.50;99.90;;;;;;4995229;28;20231;-81
2023/10/23 02:20:09;;;;;;;7.00;2.85;;;12.60;99.90;;;;;;4974387;28;20193;-81
2023/10/23 02:22:38;;;;;;;4.85;2.78;;;12.60;99.90;;;;;;4975025;28;20200;-81
2023/10/23 02:25:06;;;;;;;5.45;2.90;;;12.70;99.90;;;;;;4979759;28;20216;-81
2023/10/23 02:27:34;;;;;;;6.10;2.80;;;12.50;99.90;;;;;;4977112;28;20244;-84
2023/10/23 02:30:01;;;;;;;4.15;2.53;;;12.50;99.90;;;;;;4968094;28;20200;-81
2023/10/23 02:32:28;;;;;;;4.68;2.47;;;12.50;99.90;;;;;;4995109;28;20207;-81
2023/10/23 02:34:58;;;;;;;3.20;2.47;;;12.60;99.90;;;;;;4969402;28;20208;-82
2023/10/23 02:37:26;;;;;;;5.93;2.63;;;12.50;99.90;;;;;;4986298;28;20247;-82
2023/10/23 02:39:54;;;;;;;2.95;2.75;;;12.40;99.90;;;;;;4974193;28;20219;-83
2023/10/23 02:42:22;;;;;;;4.25;3.00;;;12.40;99.90;;;;;;4965880;28;20206;-81
2023/10/23 02:44:49;;;;;;;3.45;2.35;;;12.30;99.90;;;;;;4977296;28;20313;-81
2023/10/23 02:47:17;;;;;;;4.32;2.58;;;12.30;99.90;;;;;;4980464;28;20232;-81
2023/10/23 02:49:44;;;;;;;3.53;2.15;;;12.30;99.90;;;;;;4985724;28;20199;-82
2023/10/23 02:52:15;;;;;;;3.92;2.70;;;12.20;99.90;;;;;;4965116;28;20201;-81
2023/10/23 02:54:42;;;;;;;5.80;3.08;;;12.30;99.90;;;;;;4993301;28;20196;-81
2023/10/23 02:57:10;;;;;;;4.82;2.92;;;12.30;99.90;;;;;;4968252;28;20216;-82
2023/10/23 02:59:38;;;;;;;6.22;2.90;;;12.30;99.90;;;;;;4994146;28;20204;-81
2023/10/23 03:02:05;;;;;;;5.95;2.90;;;12.20;99.90;;;;;;4979597;28;20205;-80
2023/10/23 03:04:34;;;;;;;6.72;2.83;;;12.20;99.90;;;;;;4972653;28;20201;-80
2023/10/23 03:07:02;;;;;;;3.92;2.22;;;12.30;99.90;;;;;;4974067;28;20227;-81
2023/10/23 03:09:30;;;;;;;3.25;2.70;;;12.20;99.90;;;;;;4986780;28;20201;-81
2023/10/23 03:11:58;;;;;;;4.30;2.25;;;12.00;99.90;;;;;;4975816;28;20212;-81
2023/10/23 03:14:25;;;;;;;6.18;2.47;;;11.70;99.90;;;;;;4984569;28;20666;-81
2023/10/23 03:16:53;;;;;;;2.38;2.17;;;11.80;99.90;;;;;;4988900;28;20252;-81
2023/10/23 03:19:24;;;;;;;3.97;2.50;;;11.80;99.90;;;;;;4973056;28;20205;-81
2023/10/23 03:21:52;;;;;;;4.78;2.55;;;12.00;99.90;;;;;;4973208;28;20289;-81
2023/10/23 03:24:19;;;;;;;3.78;1.92;;;12.10;99.90;;;;;;4981165;28;20205;-81
2023/10/23 03:26:48;;;;;;;4.07;2.42;;;11.90;99.90;;;;;;4970790;28;20225;-81
2023/10/23 03:29:16;;;;;;;4.97;2.30;;;11.70;99.90;;;;;;4968646;28;20659;-81
2023/10/23 03:31:45;;;;;;;4.45;2.47;;;11.80;99.90;;;;;;4972944;28;20205;-81
2023/10/23 03:34:12;;;;;;;3.53;2.40;;;11.90;99.90;;;;;;4983371;28;20204;-81
2023/10/23 03:36:40;;;;;;;2.95;2.15;;;12.00;99.90;;;;;;4965434;28;20231;-81
2023/10/23 03:39:07;;;;;;;4.65;2.15;;;12.00;99.90;;;;;;4968927;28;20647;-81
2023/10/23 03:41:35;;;;;;;4.78;2.30;;;11.90;99.90;;;;;;4991087;28;20196;-81
2023/10/23 03:44:04;;;;;;;3.88;2.13;;;11.70;99.90;;;;;;4977671;28;20201;-81
2023/10/23 03:46:32;;;;;;;2.50;2.00;;;11.50;99.90;;;;;;4987713;28;20208;-81
2023/10/23 03:48:59;;;;;;;3.47;1.75;;;11.40;99.90;;;;;;4985991;28;20201;-81
2023/10/23 03:51:27;;;;;;;2.70;2.10;;;11.40;99.90;;;;;;4979046;28;20667;-81
2023/10/23 03:53:55;;;;;;;3.75;2.08;;;11.40;99.90;;;;;;4976201;28;20204;-81
2023/10/23 03:56:22;;;;;;;3.50;2.50;;;11.40;99.90;;;;;;4976674;28;20207;-81
2023/10/23 03:58:49;;;;;;;3.05;1.90;;;11.40;99.90;;;;;;4986362;28;20671;-81
2023/10/23 04:01:18;;;;;;;2.92;2.10;;;11.30;99.90;;;;;;4976987;28;20211;-81
2023/10/23 04:03:46;;;;;;;1.65;1.38;;;11.20;99.90;;;;;;4965422;28;20200;-81
2023/10/23 04:06:13;;;;;;;2.38;1.92;;;11.20;99.90;;;;;;4970672;28;20231;-80
2023/10/23 04:08:41;;;;;;;2.42;1.67;;;11.20;99.90;;;;;;4982036;28;20231;-81
2023/10/23 04:11:08;;;;;;;3.90;2.00;;;11.30;99.90;;;;;;4983821;28;20201;-81
2023/10/23 04:13:36;;;;;;;3.47;2.20;;;11.40;99.90;;;;;;4967874;28;20208;-81
2023/10/23 04:16:03;;;;;;;4.82;2.42;;;11.50;99.90;;;;;;4967210;28;20193;-81
2023/10/23 04:18:33;;;;;;;5.68;2.75;;;11.60;99.90;;;;;;4970937;28;20714;-81
2023/10/23 04:21:05;;;;;;;4.15;2.90;;;11.50;99.90;;;;;;4968951;28;20584;-81
2023/10/23 04:23:33;;;;;;;5.22;2.78;;;11.70;99.90;;;;;;4973320;28;20216;-81
2023/10/23 04:26:00;;;;;;;5.68;3.03;;;11.70;99.90;;;;;;4975838;28;20223;-81
2023/10/23 04:28:28;;;;;;;4.55;2.30;;;11.70;99.90;;;;;;4976651;28;20229;-81
2023/10/23 04:30:55;;;;;;;3.13;2.22;;;11.50;99.90;;;;;;4976011;28;20204;-81
2023/10/23 04:33:23;;;;;;;3.22;2.13;;;11.30;99.90;;;;;;4969174;28;20211;-81
2023/10/23 04:35:54;;;;;;;3.50;2.33;;;11.10;99.90;;;;;;4968730;28;20215;-81
2023/10/23 04:38:22;;;;;;;2.47;1.98;;;11.10;99.90;;;;;;4981482;28;20221;-81
2023/10/23 04:40:52;;;;;;;2.85;1.95;;;11.00;99.90;;;;;;4987524;28;20204;-81
2023/10/23 04:43:21;;;;;;;2.47;1.83;;;11.00;99.90;;;;;;4964063;28;20204;-81
2023/10/23 04:45:49;;;;;;;3.15;2.22;;;11.00;99.90;;;;;;4982758;28;20211;-81
2023/10/23 04:48:16;;;;;;;4.13;2.30;;;11.10;99.90;;;;;;4990482;28;20601;-81
2023/10/23 04:50:44;;;;;;;3.33;2.80;;;11.00;99.90;;;;;;4966279;28;20224;-81
2023/10/23 04:53:13;;;;;;;2.28;1.95;;;11.00;99.90;;;;;;4966482;28;20667;-81
2023/10/23 04:55:41;;;;;;;4.60;2.30;;;11.00;99.90;;;;;;4974921;28;20208;-81
2023/10/23 04:58:09;;;;;;;2.70;2.45;;;11.00;99.90;;;;;;4970793;28;20220;-81
2023/10/23 05:00:38;;;;;;;5.30;2.70;;;11.10;99.90;;;;;;4990193;28;20207;-81
2023/10/23 05:03:06;;;;;;;5.65;2.40;;;11.10;99.90;;;;;;4964862;28;20196;-81
2023/10/23 05:05:35;;;;;;;4.10;2.87;;;10.90;99.90;;;;;;4976157;28;20209;-81
2023/10/23 05:08:04;;;;;;;4.10;2.67;;;11.00;99.90;;;;;;4960955;28;20235;-81
2023/10/23 05:10:33;;;;;;;6.18;3.42;;;11.00;99.90;;;;;;4973062;28;20212;-81
2023/10/23 05:13:03;;;;;;;6.83;3.17;;;10.90;99.90;;;;;;4969201;28;20197;-81
2023/10/23 05:15:32;;;;;;;5.90;3.70;;;11.00;99.90;;;;;;4969483;28;20208;-81
2023/10/23 05:17:59;;;;;;;4.63;3.77;;;11.00;99.90;;;;;;4975770;28;20223;-81
2023/10/23 05:20:27;;;;;;;4.43;3.35;;;11.00;99.90;;;;;;4963451;28;20204;-81
2023/10/23 05:22:54;;;;;;;6.90;3.55;;;11.20;99.90;;;;;;4980788;28;20662;-81
2023/10/23 05:25:22;;;;;;;9.53;4.27;;;11.40;99.90;;;;;;4984256;28;20201;-81
2023/10/23 05:27:51;;;;;;;4.72;3.88;;;11.40;99.90;;;;;;4986344;28;20220;-82
2023/10/23 05:30:18;;;;;;;5.80;5.00;;;11.40;99.90;;;;;;4969461;28;20212;-82
2023/10/23 05:32:46;;;;;;;5.73;4.00;;;11.50;99.90;;;;;;4977541;28;20215;-81
2023/10/23 05:35:13;;;;;;;4.40;3.90;;;11.40;99.90;;;;;;4979305;28;20201;-81
2023/10/23 05:37:40;;;;;;;6.20;4.60;;;11.40;99.90;;;;;;4971171;28;20231;-82
2023/10/23 05:40:09;;;;;;;7.03;5.53;;;11.40;99.90;;;;;;4981633;28;20585;-81
2023/10/23 05:42:36;;;;;;;5.67;4.17;;;11.40;99.90;;;;;;4970525;28;20209;-82
2023/10/23 05:45:06;;;;;;;6.30;4.97;;;11.40;99.90;;;;;;4970729;28;20224;-83
2023/10/23 05:47:34;;;;;;;6.27;4.87;;;11.40;99.90;;;;;;4983546;28;20228;-79
2023/10/23 05:50:04;;;;;;;8.13;5.23;;;11.30;99.90;;;;;;4970466;28;20655;-79
2023/10/23 05:52:31;;;;;;;7.67;5.40;;;11.40;99.90;;;;;;4969712;28;20205;-79
2023/10/23 05:55:04;;;;;;;8.93;5.53;;;11.30;99.90;;;;;;4968696;28;20207;-79
2023/10/23 05:57:32;;;;;;;7.03;5.57;;;11.30;99.90;;;;;;4968942;28;20227;-80
2023/10/23 06:00:00;;;;;;;8.10;6.47;;;11.30;99.90;;;;;;4972507;28;20570;-79
2023/10/23 06:02:30;;;;;;;10.23;6.13;;;11.40;99.90;;;;;;4969398;28;20223;-81
2023/10/23 06:04:57;;;;;;;9.50;6.17;;;11.40;99.90;;;;;;4985393;28;20204;-79
2023/10/23 06:07:24;;;;;;;8.00;6.10;;;11.30;99.90;;;;;;4967574;28;20236;-79
2023/10/23 06:09:52;;;;;;;7.32;6.30;;;11.30;99.90;;;;;;4983898;28;20200;-79
2023/10/23 06:12:20;;;;;;;8.57;6.20;;;11.20;99.90;;;;;;4974240;28;20208;-79
2023/10/23 06:14:48;;;;;;;10.37;7.03;;;11.20;99.90;;;;;;4965329;28;20201;-79
2023/10/23 06:17:15;;;;;;;10.17;6.23;;;11.30;99.90;;;;;;4975553;28;20216;-79
2023/10/23 06:19:44;;;;;;;8.10;6.80;;;11.20;99.90;;;;;;4971899;28;20216;-78
2023/10/23 06:22:12;;;;;;;9.73;6.60;;;11.20;99.90;;;;;;4976270;28;20208;-79
2023/10/23 06:24:39;;;;;;;9.30;7.00;;;11.20;99.90;;;;;;4987356;28;20204;-79
2023/10/23 06:27:07;;;;;;;11.03;7.13;;;11.30;99.90;;;;;;4965718;28;20228;-79
2023/10/23 06:29:34;;;;;;;9.43;7.00;;;11.30;99.90;;;;;;4982332;28;20524;-79
2023/10/23 06:32:02;;;;;;;10.53;6.53;;;11.30;99.90;;;;;;4964696;28;20197;-79
2023/10/23 06:34:30;;;;;;;8.18;6.30;;;11.20;99.90;;;;;;4969169;28;20570;-79
2023/10/23 06:36:58;;;;;;;9.43;6.67;;;11.30;99.90;;;;;;4985883;28;20239;-79
2023/10/23 06:39:26;;;;;;;10.77;7.03;;;11.30;99.90;;;;;;4969278;28;20200;-80
2023/10/23 06:41:53;;;;;;;7.30;6.37;;;11.30;99.90;;;;;;4990754;28;20551;-80
2023/10/23 06:44:21;;;;;;;8.10;6.45;;;11.30;99.90;;;;;;4976963;28;20211;-78
2023/10/23 06:46:48;;;;;;;8.40;5.97;;;11.30;99.90;;;;;;4976979;28;20220;-78
2023/10/23 06:49:16;;;;;;;8.73;6.82;;;11.30;99.90;;;;;;4987563;28;20204;-78
2023/10/23 06:51:43;;;;;;;8.45;6.22;;;11.40;99.90;;;;;;4976412;28;20204;-78
2023/10/23 06:54:12;;;;;;;7.65;6.07;;;11.40;99.90;;;;;;4991877;28;20223;-78
2023/10/23 06:56:40;;;;;;;7.72;5.93;;;11.40;99.90;;;;;;4977391;28;20207;-78
2023/10/23 06:59:07;;;;;;;8.73;6.10;;;11.50;99.90;;;;;;4993541;28;20702;-78
2023/10/23 07:01:35;;;;;;;7.97;5.53;;;11.50;99.90;;;;;;4978246;28;20658;-78
2023/10/23 07:04:03;;;;;;;7.20;5.90;;;11.60;99.90;;;;;;4974292;28;20205;-78
2023/10/23 07:06:30;;;;;;;7.20;5.53;;;11.70;99.90;;;;;;4976139;28;20205;-77
2023/10/23 07:08:58;;;;;;;7.85;5.57;;;11.70;99.90;;;;;;4972952;28;20220;-78
2023/10/23 07:11:27;;;;;;;7.70;4.90;;;11.70;99.90;;;;;;4968760;28;20216;-79
2023/10/23 07:13:54;;;;;;;7.43;4.75;;;11.90;99.90;;;;;;4973614;28;20208;-79
2023/10/23 07:16:22;;;;;;;8.02;5.28;;;11.90;99.90;;;;;;4988267;28;20211;-79
2023/10/23 07:18:49;;;;;;;6.38;5.15;;;12.00;99.90;;;;;;4986707;28;20570;-79
2023/10/23 07:21:17;;;;;;;6.93;5.15;;;12.00;99.90;;;;;;5015314;23;20215;-80
2023/10/23 07:23:44;;;;;;;6.93;5.13;;;11.90;99.90;;;;;;5001634;28;20215;-81
2023/10/23 07:26:12;;;;;;;6.22;5.32;;;11.90;99.90;;;;;;5003199;28;20206;-80
2023/10/23 07:28:41;;;;;;;6.28;4.82;;;12.00;99.90;;;;;;5021270;28;20219;-80
2023/10/23 07:31:10;;;;;;;6.15;5.30;;;12.00;99.90;;;;;;5008610;28;20224;-81
2023/10/23 07:33:37;;;;;;;5.40;4.90;;;12.10;99.90;;;;;;5002050;28;20211;-80
2023/10/23 07:36:06;;;;;;;6.50;5.30;;;12.10;99.90;;;;;;5002156;28;20201;-80
2023/10/23 07:38:36;;;;;;;6.47;5.18;;;12.20;99.90;;;;;;5002491;28;20654;-81
2023/10/23 07:41:04;;;;;;;6.68;5.07;;;12.30;99.90;;;;;;4991801;28;20216;-81
2023/10/23 07:43:31;;;;;;;7.30;5.07;;;12.40;99.90;;;;;;4996442;28;20207;-81
2023/10/23 07:46:05;;;;;;;8.07;5.95;;;12.50;99.90;;;;;;4993005;28;20558;-81
2023/10/23 07:48:33;;;;;;;7.72;5.50;;;12.60;99.90;;;;;;4983680;28;20220;-81
2023/10/23 07:51:03;;;;;;;9.60;6.25;;;12.80;99.90;;;;;;4967420;28;20213;-81
2023/10/23 07:53:31;;;;;;;9.15;5.80;;;12.80;99.90;;;;;;4969047;28;20209;-81
2023/10/23 07:55:59;;;;;;;7.82;5.90;;;12.90;99.90;;;;;;4990868;28;20208;-81
2023/10/23 07:58:26;;;;;;;10.02;5.90;;;12.90;99.90;;;;;;4986813;28;20211;-81
2023/10/23 08:01:04;;;;;;;8.15;5.25;;;13.00;99.90;;;;;;4979867;28;20221;-80
2023/10/23 08:03:33;;;;;;;8.05;5.22;;;13.00;99.90;;;;;;4978316;28;20201;-80
2023/10/23 08:06:03;;;;;;;7.85;5.05;;;13.10;99.90;;;;;;4993967;28;20579;-80
2023/10/23 08:08:30;;;;;;;6.85;5.55;;;13.20;99.90;;;;;;4984734;28;20212;-80
2023/10/23 08:10:58;;;;;;;7.95;5.68;;;13.20;99.90;;;;;;4996113;28;20231;-80
2023/10/23 08:13:25;;;;;;;7.03;4.57;;;13.30;99.90;;;;;;5007712;28;20209;-80
2023/10/23 08:15:54;;;;;;;6.45;5.00;;;13.30;99.90;;;;;;4969029;28;20201;-81
2023/10/23 08:18:23;;;;;;;8.30;4.90;;;13.40;99.90;;;;;;4986792;28;20204;-81
2023/10/23 08:20:50;;;;;;;6.80;5.03;;;13.50;99.90;;;;;;4976296;28;20232;-81
2023/10/23 08:23:18;;;;;;;7.47;4.53;;;13.40;99.90;;;;;;4975338;28;20201;-81
2023/10/23 08:25:45;;;;;;;7.35;4.90;;;13.50;99.90;;;;;;4977622;28;20204;-81
2023/10/23 08:28:13;;;;;;;9.35;4.88;;;13.60;99.90;;;;;;4977416;28;20232;-81
2023/10/23 08:30:41;;;;;;;6.35;4.40;;;13.50;99.90;;;;;;4992731;28;20247;-81
2023/10/23 08:33:09;;;;;;;6.13;4.97;;;13.50;99.90;;;;;;4977447;28;20207;-80
2023/10/23 08:35:38;;;;;;;6.85;4.20;;;13.60;99.90;;;;;;4992331;28;20209;-80
2023/10/23 08:38:05;;;;;;;5.55;4.60;;;13.70;99.90;;;;;;4991088;28;20207;-79
2023/10/23 08:40:33;;;;;;;8.23;5.53;;;13.80;99.90;;;;;;4970370;28;20228;-80
2023/10/23 08:43:00;;;;;;;6.93;4.78;;;13.80;99.90;;;;;;4973741;28;20194;-81
2023/10/23 08:45:28;;;;;;;5.50;4.53;;;13.90;99.90;;;;;;4977574;28;20204;-82
2023/10/23 08:47:57;;;;;;;5.47;4.85;;;13.80;99.90;;;;;;4976409;28;20208;-80
2023/10/23 08:50:25;;;;;;;5.57;5.07;;;13.90;99.90;;;;;;4993307;28;20251;-80
2023/10/23 08:52:58;;;;;;;7.28;5.07;;;14.00;99.90;;;;;;4970547;28;20200;-80
2023/10/23 08:55:27;;;;;;;9.18;6.15;;;14.10;99.90;;;;;;4993635;28;20215;-80
2023/10/23 08:57:58;;;;;;;6.75;5.18;;;14.10;99.90;;;;;;4994789;28;20556;-80
2023/10/23 09:00:25;;;;;;;9.73;5.78;;;14.20;99.90;;;;;;4993698;28;20225;-80
2023/10/23 09:02:53;;;;;;;9.25;6.07;;;14.10;99.90;;;;;;4992135;28;20531;-80
2023/10/23 09:05:20;;;;;;;8.82;5.65;;;14.10;99.90;;;;;;4975621;28;20216;-81
2023/10/23 09:07:48;;;;;;;8.68;5.47;;;14.20;99.90;;;;;;4990132;28;20529;-81
2023/10/23 09:10:17;;;;;;;8.43;6.13;;;14.30;99.90;;;;;;4992059;28;20577;-81
2023/10/23 09:12:44;;;;;;;8.25;5.03;;;14.20;99.90;;;;;;4975790;28;20211;-80
2023/10/23 09:15:16;;;;;;;7.28;5.60;;;14.10;99.90;;;;;;4990170;28;20557;-81
2023/10/23 09:17:44;;;;;;;7.80;5.43;;;14.30;99.90;;;;;;4975604;28;20196;-81
2023/10/23 09:20:26;;;;;;;8.40;5.38;;;14.40;99.90;;;;;;4993437;28;20185;-81
2023/10/23 09:22:54;;;;;;;5.35;4.63;;;14.50;99.90;;;;;;4976529;28;20204;-81
2023/10/23 09:25:24;;;;;;;7.30;5.45;;;14.60;99.90;;;;;;4995370;28;20203;-80
2023/10/23 09:27:55;;;;;;;6.82;4.82;;;14.50;99.90;;;;;;4978039;28;20212;-80
2023/10/23 09:30:22;;;;;;;6.05;5.15;;;14.30;99.90;;;;;;4995220;28;20599;-80
2023/10/23 09:32:53;;;;;;;7.78;5.70;;;14.30;99.90;;;;;;4979835;28;20210;-80
2023/10/23 09:35:23;;;;;;;7.50;5.47;;;14.30;99.90;;;;;;5008615;28;20213;-80
2023/10/23 09:37:50;;;;;;;9.88;6.43;;;14.40;99.90;;;;;;4993532;28;20203;-80
2023/10/23 09:40:18;;;;;;;8.80;5.90;;;14.30;99.90;;;;;;4992745;28;20693;-81
2023/10/23 09:42:46;;;;;;;9.05;6.40;;;14.30;99.90;;;;;;4976738;28;20211;-80
2023/10/23 09:45:15;;;;;;;8.25;5.93;;;14.40;99.90;;;;;;4975661;28;20207;-80
2023/10/23 09:47:42;;;;;;;8.20;5.25;;;14.50;99.90;;;;;;4991080;28;20303;-80
2023/10/23 09:50:10;;;;;;;7.55;5.20;;;14.40;99.90;;;;;;4986264;28;20479;-80
2023/10/23 09:52:38;;;;;;;8.55;5.43;;;14.30;99.90;;;;;;4991716;28;20205;-80
2023/10/23 09:55:07;;;;;;;7.47;5.55;;;14.30;99.90;;;;;;4992279;28;20199;-80
2023/10/23 09:57:37;;;;;;;9.05;5.28;;;14.50;99.90;;;;;;4974990;28;20201;-80
2023/10/23 10:00:13;;;;;;;7.30;4.90;;;14.50;99.90;;;;;;4974387;28;20216;-80
2023/10/23 10:02:48;;;;;;;8.23;4.75;;;14.50;99.90;;;;;;4992476;28;20192;-80
2023/10/23 10:05:21;;;;;;;5.03;4.50;;;14.70;99.90;;;;;;4974092;28;20203;-80
2023/10/23 10:07:55;;;;;;;5.93;4.30;;;14.80;99.90;;;;;;4972001;28;20211;-80
2023/10/23 10:10:23;;;;;;;5.63;5.03;;;15.00;99.90;;;;;;4993651;28;20227;-81
2023/10/23 10:12:51;;;;;;;7.18;4.38;;;15.10;99.90;;;;;;4973280;28;20208;-80
2023/10/23 10:15:22;;;;;;;6.43;4.15;;;15.20;99.90;;;;;;4994807;28;20778;-80
2023/10/23 10:17:51;;;;;;;8.82;4.55;;;15.50;99.90;;;;;;4982235;28;20705;-80
2023/10/23 10:20:20;;;;;;;7.35;3.88;;;15.60;99.90;;;;;;4992218;28;20220;-81
2023/10/23 10:22:55;;;;;;;5.05;3.97;;;15.50;99.90;;;;;;4992999;28;20185;-80
2023/10/23 10:25:22;;;;;;;4.75;3.47;;;15.50;99.90;;;;;;4981259;28;20221;-80
2023/10/23 10:27:57;;;;;;;8.38;4.05;;;15.60;99.90;;;;;;4978126;28;20277;-80
2023/10/23 10:30:45;;;;;;;4.47;3.65;;;15.90;99.90;;;;;;4979724;28;20563;-80
2023/10/23 10:33:17;;;;;;;5.55;3.75;;;16.10;99.90;;;;;;4993836;28;20200;-80
2023/10/23 10:35:50;;;;;;;6.80;4.63;;;16.10;99.90;;;;;;4977687;28;20200;-80
2023/10/23 10:38:22;;;;;;;5.63;3.70;;;16.10;99.90;;;;;;4976936;28;20211;-81
2023/10/23 10:41:00;;;;;;;7.20;4.07;;;16.20;99.90;;;;;;4986354;28;20217;-81
2023/10/23 10:43:32;;;;;;;5.90;4.28;;;16.10;99.90;;;;;;4974471;28;20554;-80
2023/10/23 10:46:04;;;;;;;4.88;4.10;;;16.20;99.90;;;;;;4994645;28;20211;-80
2023/10/23 10:48:45;;;;;;;7.60;3.65;;;16.10;99.90;;;;;;4977832;28;20654;-80
2023/10/23 10:51:16;;;;;;;6.55;3.47;;;16.30;99.90;;;;;;4993938;28;20232;-80
2023/10/23 10:53:43;;;;;;;6.65;3.70;;;16.30;99.90;;;;;;4980318;28;20211;-81
2023/10/23 10:56:12;;;;;;;5.60;3.67;;;16.50;99.90;;;;;;4979764;28;20574;-81
2023/10/23 10:58:42;;;;;;;5.25;4.00;;;16.40;99.90;;;;;;4976743;28;20197;-81
2023/10/23 11:01:11;;;;;;;7.78;4.53;;;16.30;99.90;;;;;;4979891;28;20219;-81
2023/10/23 11:03:41;;;;;;;5.05;3.75;;;16.40;99.90;;;;;;4976845;28;20208;-81
2023/10/23 11:06:10;;;;;;;5.90;3.67;;;16.10;99.90;;;;;;4978695;28;20213;-80
2023/10/23 11:08:40;;;;;;;3.75;3.42;;;16.20;99.90;;;;;;4991860;28;20207;-80
2023/10/23 11:11:07;;;;;;;6.88;3.97;;;16.40;99.90;;;;;;4994084;28;20699;-80
2023/10/23 11:13:35;;;;;;;6.10;3.90;;;16.30;99.90;;;;;;4996448;28;20204;-80
2023/10/23 11:16:04;;;;;;;7.30;3.72;;;16.50;99.90;;;;;;4977737;28;20643;-80
2023/10/23 11:18:33;;;;;;;4.82;3.28;;;16.60;99.90;;;;;;4996968;28;20809;-81
2023/10/23 11:21:01;;;;;;;7.07;3.47;;;16.80;99.90;;;;;;4993870;28;20239;-80
2023/10/23 11:23:29;;;;;;;3.55;2.80;;;16.60;99.90;;;;;;4978908;28;20697;-80
2023/10/23 11:25:57;;;;;;;5.75;3.25;;;16.40;99.90;;;;;;4994937;28;20212;-81
2023/10/23 11:28:25;;;;;;;4.38;2.92;;;16.50;99.90;;;;;;4977182;28;20201;-81
2023/10/23 11:30:55;;;;;;;3.78;2.95;;;16.80;99.90;;;;;;4994436;28;20698;-81
2023/10/23 11:33:23;;;;;;;4.53;2.78;;;17.10;99.90;;;;;;4976472;28;20679;-81
2023/10/23 11:35:53;;;;;;;4.25;2.90;;;17.10;99.90;;;;;;4994752;28;20208;-80
2023/10/23 11:38:23;;;;;;;4.20;2.75;;;17.10;99.90;;;;;;4988952;28;20212;-80
2023/10/23 11:40:53;;;;;;;4.43;2.85;;;17.10;99.90;;;;;;4996943;28;20223;-80
2023/10/23 11:43:20;;;;;;;4.68;4.00;;;17.30;99.90;;;;;;4976968;28;20208;-80
2023/10/23 11:45:48;;;;;;;3.47;3.15;;;17.00;99.90;;;;;;4980167;28;20200;-80
2023/10/23 11:48:16;;;;;;;3.63;3.05;;;16.80;99.90;;;;;;4993895;28;20200;-82
2023/10/23 11:50:44;;;;;;;3.58;2.80;;;16.40;99.90;;;;;;4978381;28;20235;-80
2023/10/23 11:53:16;;;;;;;3.80;3.40;;;16.30;99.90;;;;;;4977529;28;20212;-80
2023/10/23 11:55:45;;;;;;;6.35;2.45;;;16.60;99.90;;;;;;4992826;28;20614;-80
2023/10/23 11:58:13;;;;;;;4.25;2.40;;;16.60;99.90;;;;;;4977718;28;20204;-81
2023/10/23 12:00:41;;;;;;;3.90;2.25;;;16.80;99.90;;;;;;4992362;28;20228;-81
2023/10/23 12:03:09;;;;;;;8.05;3.38;;;17.10;99.90;;;;;;4995084;28;20196;-80
2023/10/23 12:05:36;;;;;;;5.03;3.30;;;16.90;99.90;;;;;;4975238;28;20223;-80
2023/10/23 12:08:05;;;;;;;4.65;3.08;;;16.80;99.90;;;;;;4992328;28;20203;-81
2023/10/23 12:10:39;;;;;;;5.00;2.78;;;16.90;99.90;;;;;;4976375;28;20597;-80
2023/10/23 12:13:06;;;;;;;5.15;2.88;;;16.90;99.90;;;;;;4992334;28;20224;-80
2023/10/23 12:15:34;;;;;;;5.18;2.72;;;17.00;99.90;;;;;;4989545;28;20209;-80
2023/10/23 12:18:04;;;;;;;4.13;2.72;;;17.00;99.90;;;;;;4987521;28;20783;-80
2023/10/23 12:20:32;;;;;;;6.20;3.05;;;17.00;99.90;;;;;;4971022;28;20235;-81
2023/10/23 12:22:59;;;;;;;4.30;2.83;;;17.00;99.90;;;;;;4993660;28;20216;-83
2023/10/23 12:25:27;;;;;;;3.60;3.30;;;16.50;99.90;;;;;;4991925;28;20208;-83
2023/10/23 12:27:56;;;;;;;8.43;3.58;;;16.50;99.90;;;;;;4977466;28;20227;-82
2023/10/23 12:30:23;;;;;;;4.13;2.90;;;16.10;99.90;;;;;;4990301;28;20220;-82
2023/10/23 12:32:51;;;;;;;5.72;3.17;;;16.30;99.90;;;;;;4988682;28;20205;-82
2023/10/23 12:35:19;;;;;;;4.72;3.03;;;16.20;99.90;;;;;;4976921;28;20207;-82
2023/10/23 12:37:47;;;;;;;4.95;3.50;;;16.10;99.90;;;;;;5011363;28;20197;-82
2023/10/23 12:40:15;;;;;;;5.13;3.10;;;16.20;99.90;;;;;;4987416;28;20697;-82
2023/10/23 12:42:42;;;;;;;3.33;2.88;;;16.10;99.90;;;;;;4978451;28;20204;-82
2023/10/23 12:45:11;;;;;;;3.90;2.80;;;15.90;99.90;;;;;;4978791;28;20201;-82
2023/10/23 12:47:39;;;;;;;3.00;2.80;;;15.80;99.90;;;;;;4992369;28;20203;-82
2023/10/23 12:50:07;;;;;;;4.53;2.63;;;16.10;99.90;;;;;;4993667;28;20219;-82
2023/10/23 12:52:35;;;;;;;4.97;2.85;;;16.10;99.90;;;;;;4979821;28;20192;-82